KLM366 LATI-LGSA
Flight info
| Callsign | KLM366 |
|---|---|
| Flight time | 0h 59m |
| Altitude | 30000 |
| Route | ELBAK DCT DIMIS UL604 TRL UJ65 SOKRI |
| Aircraft | A20N/M-SDE2E3FGHIRWXY/LB1 |
Departure
| Time | 2026-05-08 18:06 |
|---|---|
| Airport | Tirana International Airport Mother Teresa (LATI) |
Arrival
| Time | 2026-05-08 19:06 |
|---|---|
| Airport | Chania International Airport (LGSA) |
| Time | Latitude | Longitude | Altitude | Speed | Heading |
|---|---|---|---|---|---|
| 2026-05-08 17:37 | 41.41906 | 19.71512 | 132 ft | 0 kts | 265° |
| 2026-05-08 17:56 | 41.41913 | 19.71570 | 139 ft | 0 kts | 360° |
| 2026-05-08 17:57 | 41.41931 | 19.71570 | 131 ft | 7 kts | 359° |
| 2026-05-08 17:57 | 41.41991 | 19.71567 | 131 ft | 10 kts | 356° |
| 2026-05-08 17:57 | 41.42003 | 19.71566 | 131 ft | 0 kts | 356° |
| 2026-05-08 17:58 | 41.42022 | 19.71564 | 131 ft | 8 kts | 356° |
| 2026-05-08 17:58 | 41.42094 | 19.71558 | 131 ft | 12 kts | 356° |
| 2026-05-08 17:58 | 41.42177 | 19.71550 | 131 ft | 12 kts | 355° |
| 2026-05-08 17:59 | 41.42263 | 19.71539 | 131 ft | 12 kts | 354° |
| 2026-05-08 17:59 | 41.42322 | 19.71528 | 131 ft | 0 kts | 353° |
| 2026-05-08 18:00 | 41.42361 | 19.71523 | 131 ft | 8 kts | 355° |
| 2026-05-08 18:00 | 41.42488 | 19.71508 | 131 ft | 10 kts | 354° |
| 2026-05-08 18:00 | 41.42555 | 19.71499 | 131 ft | 10 kts | 352° |
| 2026-05-08 18:01 | 41.42621 | 19.71486 | 131 ft | 10 kts | 2° |
| 2026-05-08 18:01 | 41.42666 | 19.71531 | 131 ft | 8 kts | 71° |
| 2026-05-08 18:01 | 41.42675 | 19.71601 | 131 ft | 8 kts | 81° |
| 2026-05-08 18:01 | 41.42681 | 19.71673 | 128 ft | 8 kts | 84° |
| 2026-05-08 18:02 | 41.42687 | 19.71751 | 127 ft | 9 kts | 84° |
| 2026-05-08 18:02 | 41.42691 | 19.71813 | 127 ft | 11 kts | 84° |
| 2026-05-08 18:02 | 41.42672 | 19.71895 | 123 ft | 4 kts | 155° |
| 2026-05-08 18:02 | 41.42639 | 19.71907 | 125 ft | 0 kts | 168° |
| 2026-05-08 18:06 | 41.42635 | 19.71907 | 122 ft | 6 kts | 169° |
| 2026-05-08 18:06 | 41.42253 | 19.71963 | 121 ft | 102 kts | 174° |
| 2026-05-08 18:06 | 41.41310 | 19.72087 | 379 ft | 150 kts | 174° |
| 2026-05-08 18:06 | 41.40307 | 19.72197 | 1460 ft | 142 kts | 175° |
| 2026-05-08 18:07 | 41.39258 | 19.72289 | 1822 ft | 188 kts | 175° |
| 2026-05-08 18:07 | 41.37596 | 19.72398 | 1100 ft | 282 kts | 175° |
| 2026-05-08 18:07 | 41.35471 | 19.72696 | 1293 ft | 323 kts | 173° |
| 2026-05-08 18:07 | 41.33224 | 19.73050 | 2538 ft | 320 kts | 172° |
| 2026-05-08 18:08 | 41.31067 | 19.73386 | 4260 ft | 304 kts | 174° |
| 2026-05-08 18:08 | 41.29015 | 19.73700 | 5902 ft | 289 kts | 175° |
| 2026-05-08 18:08 | 41.27069 | 19.73988 | 7551 ft | 274 kts | 176° |
| 2026-05-08 18:08 | 41.25204 | 19.74491 | 8899 ft | 277 kts | 162° |
| 2026-05-08 18:09 | 41.23490 | 19.75749 | 9986 ft | 287 kts | 150° |
| 2026-05-08 18:09 | 41.21776 | 19.77237 | 10688 ft | 306 kts | 149° |
| 2026-05-08 18:09 | 41.19930 | 19.78856 | 11095 ft | 331 kts | 149° |
| 2026-05-08 18:09 | 41.17957 | 19.80594 | 11676 ft | 346 kts | 149° |
| 2026-05-08 18:10 | 41.15941 | 19.82372 | 12602 ft | 351 kts | 149° |
| 2026-05-08 18:10 | 41.13886 | 19.84181 | 13505 ft | 357 kts | 149° |
| 2026-05-08 18:10 | 41.11796 | 19.86013 | 14339 ft | 363 kts | 149° |
| 2026-05-08 18:10 | 41.09674 | 19.87869 | 15110 ft | 369 kts | 149° |
| 2026-05-08 18:11 | 41.07510 | 19.89758 | 15840 ft | 376 kts | 149° |
| 2026-05-08 18:11 | 41.05311 | 19.91679 | 16604 ft | 382 kts | 149° |
| 2026-05-08 18:11 | 41.03080 | 19.93629 | 17349 ft | 388 kts | 150° |
| 2026-05-08 18:11 | 41.00836 | 19.95586 | 18063 ft | 394 kts | 150° |
| 2026-05-08 18:12 | 40.98526 | 19.97598 | 18739 ft | 400 kts | 150° |
| 2026-05-08 18:12 | 40.96195 | 19.99627 | 19456 ft | 403 kts | 150° |
| 2026-05-08 18:12 | 40.93838 | 20.01677 | 20153 ft | 408 kts | 150° |
| 2026-05-08 18:12 | 40.91454 | 20.03747 | 20841 ft | 412 kts | 150° |
| 2026-05-08 18:13 | 40.89044 | 20.05839 | 21519 ft | 417 kts | 150° |
| 2026-05-08 18:13 | 40.86593 | 20.07929 | 22182 ft | 421 kts | 153° |
| 2026-05-08 18:13 | 40.83995 | 20.09720 | 22843 ft | 423 kts | 157° |
| 2026-05-08 18:13 | 40.81336 | 20.11450 | 23480 ft | 428 kts | 157° |
| 2026-05-08 18:14 | 40.78657 | 20.13203 | 24061 ft | 431 kts | 157° |
| 2026-05-08 18:14 | 40.76228 | 20.14795 | 24593 ft | 433 kts | 157° |
| 2026-05-08 18:14 | 40.73518 | 20.16571 | 25164 ft | 436 kts | 156° |
| 2026-05-08 18:14 | 40.70817 | 20.18339 | 25706 ft | 438 kts | 156° |
| 2026-05-08 18:15 | 40.68059 | 20.20142 | 26238 ft | 441 kts | 156° |
| 2026-05-08 18:15 | 40.65294 | 20.21948 | 26724 ft | 445 kts | 156° |
| 2026-05-08 18:15 | 40.62501 | 20.23769 | 27186 ft | 450 kts | 156° |
| 2026-05-08 18:15 | 40.59695 | 20.25599 | 27848 ft | 451 kts | 156° |
| 2026-05-08 18:16 | 40.56869 | 20.27439 | 28280 ft | 455 kts | 156° |
| 2026-05-08 18:16 | 40.54019 | 20.29292 | 28823 ft | 457 kts | 156° |
| 2026-05-08 18:16 | 40.51161 | 20.31149 | 29294 ft | 460 kts | 156° |
| 2026-05-08 18:16 | 40.48279 | 20.33019 | 29711 ft | 463 kts | 156° |
| 2026-05-08 18:17 | 40.45380 | 20.34901 | 29947 ft | 466 kts | 156° |
| 2026-05-08 18:17 | 40.42467 | 20.36788 | 30013 ft | 467 kts | 156° |
| 2026-05-08 18:17 | 40.36635 | 20.40565 | 30015 ft | 468 kts | 157° |
| 2026-05-08 18:18 | 40.30783 | 20.44345 | 30024 ft | 470 kts | 157° |
| 2026-05-08 18:18 | 40.24907 | 20.48133 | 30022 ft | 471 kts | 157° |
| 2026-05-08 18:19 | 40.19018 | 20.51923 | 30022 ft | 473 kts | 157° |
| 2026-05-08 18:19 | 40.13100 | 20.55721 | 30026 ft | 475 kts | 158° |
| 2026-05-08 18:20 | 40.07280 | 20.59449 | 30031 ft | 477 kts | 158° |
| 2026-05-08 18:20 | 40.01288 | 20.63158 | 30034 ft | 477 kts | 159° |
| 2026-05-08 18:21 | 39.95261 | 20.66803 | 30050 ft | 479 kts | 159° |
| 2026-05-08 18:21 | 39.89203 | 20.70482 | 30058 ft | 482 kts | 159° |
| 2026-05-08 18:22 | 39.83094 | 20.74194 | 30065 ft | 486 kts | 159° |
| 2026-05-08 18:22 | 39.76940 | 20.77931 | 30077 ft | 489 kts | 160° |
| 2026-05-08 18:23 | 39.70754 | 20.81679 | 30074 ft | 492 kts | 160° |
| 2026-05-08 18:23 | 39.64605 | 20.85688 | 30072 ft | 497 kts | 156° |
| 2026-05-08 18:24 | 39.58516 | 20.89954 | 30072 ft | 498 kts | 157° |
| 2026-05-08 18:24 | 39.52396 | 20.94175 | 30065 ft | 499 kts | 158° |
| 2026-05-08 18:25 | 39.46244 | 20.98372 | 30076 ft | 502 kts | 158° |
| 2026-05-08 18:25 | 39.40086 | 21.02612 | 30078 ft | 499 kts | 157° |
| 2026-05-08 18:26 | 39.34044 | 21.06768 | 30079 ft | 504 kts | 156° |
| 2026-05-08 18:26 | 39.27823 | 21.10956 | 30084 ft | 503 kts | 159° |
| 2026-05-08 18:27 | 39.22645 | 21.14376 | 30087 ft | 504 kts | 159° |
| 2026-05-08 18:27 | 39.15405 | 21.19227 | 30086 ft | 505 kts | 159° |
| 2026-05-08 18:28 | 39.09184 | 21.23417 | 30085 ft | 504 kts | 159° |
| 2026-05-08 18:28 | 39.02964 | 21.27599 | 30091 ft | 504 kts | 159° |
| 2026-05-08 18:29 | 38.96751 | 21.31765 | 30090 ft | 503 kts | 159° |
| 2026-05-08 18:29 | 38.90546 | 21.35918 | 30091 ft | 503 kts | 159° |
| 2026-05-08 18:30 | 38.84343 | 21.40064 | 30093 ft | 502 kts | 159° |
| 2026-05-08 18:30 | 38.78149 | 21.44194 | 30094 ft | 501 kts | 159° |
| 2026-05-08 18:31 | 38.71968 | 21.48308 | 30097 ft | 500 kts | 159° |
| 2026-05-08 18:31 | 38.65906 | 21.52332 | 30092 ft | 499 kts | 159° |
| 2026-05-08 18:32 | 38.59750 | 21.56413 | 30096 ft | 498 kts | 159° |
| 2026-05-08 18:32 | 38.53603 | 21.60482 | 30095 ft | 497 kts | 159° |
| 2026-05-08 18:33 | 38.47458 | 21.64540 | 30094 ft | 497 kts | 159° |
| 2026-05-08 18:33 | 38.41374 | 21.68551 | 30091 ft | 495 kts | 159° |
| 2026-05-08 18:34 | 38.35244 | 21.72583 | 30083 ft | 496 kts | 159° |
| 2026-05-08 18:34 | 38.29125 | 21.76601 | 30078 ft | 494 kts | 159° |
| 2026-05-08 18:35 | 38.23015 | 21.80604 | 30088 ft | 493 kts | 159° |
| 2026-05-08 18:35 | 38.16918 | 21.84592 | 30088 ft | 492 kts | 159° |
| 2026-05-08 18:36 | 38.10832 | 21.88565 | 30091 ft | 491 kts | 159° |
| 2026-05-08 18:36 | 38.04755 | 21.92525 | 30094 ft | 490 kts | 159° |
| 2026-05-08 18:37 | 37.98692 | 21.96469 | 30100 ft | 490 kts | 159° |
| 2026-05-08 18:37 | 37.92638 | 22.00398 | 30103 ft | 489 kts | 159° |
| 2026-05-08 18:38 | 37.86576 | 22.04325 | 30097 ft | 488 kts | 159° |
| 2026-05-08 18:38 | 37.80520 | 22.08241 | 30104 ft | 488 kts | 159° |
| 2026-05-08 18:39 | 37.74470 | 22.12147 | 30110 ft | 488 kts | 159° |
| 2026-05-08 18:39 | 37.68419 | 22.16047 | 30110 ft | 487 kts | 159° |
| 2026-05-08 18:40 | 37.62402 | 22.19914 | 30112 ft | 489 kts | 159° |
| 2026-05-08 18:40 | 37.56348 | 22.23802 | 30109 ft | 488 kts | 159° |
| 2026-05-08 18:41 | 37.50241 | 22.27713 | 30115 ft | 489 kts | 159° |
| 2026-05-08 18:41 | 37.44179 | 22.31591 | 30118 ft | 489 kts | 159° |
| 2026-05-08 18:42 | 37.38366 | 22.36001 | 30124 ft | 498 kts | 147° |
| 2026-05-08 18:42 | 37.32965 | 22.41454 | 30112 ft | 498 kts | 146° |
| 2026-05-08 18:43 | 37.27565 | 22.46891 | 30113 ft | 497 kts | 146° |
| 2026-05-08 18:43 | 37.22266 | 22.52216 | 30108 ft | 496 kts | 146° |
| 2026-05-08 18:44 | 37.16887 | 22.57604 | 30115 ft | 494 kts | 146° |
| 2026-05-08 18:44 | 37.11509 | 22.62967 | 30114 ft | 494 kts | 146° |
| 2026-05-08 18:45 | 37.06134 | 22.68305 | 30107 ft | 493 kts | 146° |
| 2026-05-08 18:45 | 37.00691 | 22.73704 | 30111 ft | 510 kts | 146° |
| 2026-05-08 18:46 | 36.95027 | 22.79328 | 30106 ft | 521 kts | 146° |
| 2026-05-08 18:46 | 36.89425 | 22.84950 | 30106 ft | 504 kts | 146° |
| 2026-05-08 18:47 | 36.86748 | 22.87636 | 30110 ft | 484 kts | 146° |
| 2026-05-08 18:47 | 36.84100 | 22.90233 | 30103 ft | 488 kts | 147° |
| 2026-05-08 18:47 | 36.78721 | 22.95456 | 29678 ft | 489 kts | 147° |
| 2026-05-08 18:48 | 36.76039 | 22.98083 | 28828 ft | 491 kts | 146° |
| 2026-05-08 18:48 | 36.73346 | 23.00728 | 27739 ft | 495 kts | 146° |
| 2026-05-08 18:48 | 36.70631 | 23.03395 | 26773 ft | 497 kts | 146° |
| 2026-05-08 18:48 | 36.67929 | 23.06053 | 26033 ft | 492 kts | 146° |
| 2026-05-08 18:49 | 36.66154 | 23.07805 | 25559 ft | 489 kts | 146° |
| 2026-05-08 18:49 | 36.63497 | 23.10421 | 24843 ft | 484 kts | 146° |
| 2026-05-08 18:49 | 36.60866 | 23.13003 | 24162 ft | 480 kts | 146° |
| 2026-05-08 18:49 | 36.58255 | 23.15556 | 23441 ft | 475 kts | 146° |
| 2026-05-08 18:50 | 36.55756 | 23.17996 | 22740 ft | 470 kts | 146° |
| 2026-05-08 18:50 | 36.53205 | 23.20488 | 22041 ft | 464 kts | 146° |
| 2026-05-08 18:50 | 36.50686 | 23.22948 | 21424 ft | 457 kts | 146° |
| 2026-05-08 18:50 | 36.48227 | 23.25352 | 21171 ft | 441 kts | 146° |
| 2026-05-08 18:51 | 36.45869 | 23.27658 | 21093 ft | 424 kts | 146° |
| 2026-05-08 18:51 | 36.43532 | 23.29934 | 20915 ft | 430 kts | 146° |
| 2026-05-08 18:51 | 36.41178 | 23.32221 | 20665 ft | 429 kts | 146° |
| 2026-05-08 18:51 | 36.38841 | 23.34495 | 20417 ft | 425 kts | 146° |
| 2026-05-08 18:52 | 36.36522 | 23.36750 | 20181 ft | 423 kts | 146° |
| 2026-05-08 18:52 | 36.34210 | 23.38996 | 19937 ft | 422 kts | 146° |
| 2026-05-08 18:52 | 36.31916 | 23.41224 | 19698 ft | 420 kts | 146° |
| 2026-05-08 18:52 | 36.29623 | 23.43449 | 19459 ft | 418 kts | 146° |
| 2026-05-08 18:53 | 36.27292 | 23.45570 | 19223 ft | 413 kts | 153° |
| 2026-05-08 18:53 | 36.24740 | 23.47110 | 18986 ft | 405 kts | 165° |
| 2026-05-08 18:53 | 36.22040 | 23.47982 | 18758 ft | 397 kts | 175° |
| 2026-05-08 18:53 | 36.19316 | 23.48531 | 18528 ft | 396 kts | 176° |
| 2026-05-08 18:54 | 36.16599 | 23.49076 | 18296 ft | 395 kts | 176° |
| 2026-05-08 18:54 | 36.13894 | 23.49624 | 18024 ft | 393 kts | 176° |
| 2026-05-08 18:54 | 36.11200 | 23.50175 | 17761 ft | 391 kts | 176° |
| 2026-05-08 18:54 | 36.08525 | 23.50722 | 17501 ft | 389 kts | 176° |
| 2026-05-08 18:55 | 36.03200 | 23.51809 | 16983 ft | 386 kts | 176° |
| 2026-05-08 18:55 | 36.00557 | 23.52348 | 16731 ft | 384 kts | 176° |
| 2026-05-08 18:55 | 35.97922 | 23.52887 | 16478 ft | 382 kts | 176° |
| 2026-05-08 18:56 | 35.95303 | 23.53422 | 16227 ft | 381 kts | 176° |
| 2026-05-08 18:56 | 35.92700 | 23.53954 | 15979 ft | 379 kts | 176° |
| 2026-05-08 18:56 | 35.90105 | 23.54485 | 15733 ft | 377 kts | 176° |
| 2026-05-08 18:56 | 35.87555 | 23.55008 | 15488 ft | 376 kts | 176° |
| 2026-05-08 18:57 | 35.85070 | 23.55519 | 15257 ft | 374 kts | 176° |
| 2026-05-08 18:57 | 35.82504 | 23.56049 | 15027 ft | 372 kts | 176° |
| 2026-05-08 18:57 | 35.79966 | 23.56576 | 14778 ft | 370 kts | 175° |
| 2026-05-08 18:57 | 35.77423 | 23.57106 | 14536 ft | 369 kts | 175° |
| 2026-05-08 18:58 | 35.74899 | 23.57635 | 14302 ft | 367 kts | 175° |
| 2026-05-08 18:58 | 35.72391 | 23.58164 | 14071 ft | 365 kts | 175° |
| 2026-05-08 18:58 | 35.69892 | 23.58695 | 13835 ft | 364 kts | 175° |
| 2026-05-08 18:58 | 35.67402 | 23.59227 | 13419 ft | 364 kts | 175° |
| 2026-05-08 18:59 | 35.64896 | 23.59764 | 12647 ft | 368 kts | 175° |
| 2026-05-08 18:59 | 35.62342 | 23.60306 | 11767 ft | 374 kts | 175° |
| 2026-05-08 18:59 | 35.59807 | 23.60876 | 11347 ft | 369 kts | 171° |
| 2026-05-08 18:59 | 35.57552 | 23.62395 | 10610 ft | 382 kts | 126° |
| 2026-05-08 19:00 | 35.56844 | 23.65234 | 11046 ft | 340 kts | 88° |
| 2026-05-08 19:00 | 35.57453 | 23.68106 | 10053 ft | 352 kts | 51° |
| 2026-05-08 19:00 | 35.58953 | 23.70318 | 10177 ft | 323 kts | 51° |
| 2026-05-08 19:00 | 35.59780 | 23.72619 | 11030 ft | 276 kts | 68° |
| 2026-05-08 19:01 | 35.60366 | 23.74861 | 10088 ft | 297 kts | 72° |
| 2026-05-08 19:01 | 35.60856 | 23.77625 | 7934 ft | 364 kts | 80° |
| 2026-05-08 19:01 | 35.61129 | 23.80774 | 6766 ft | 377 kts | 85° |
| 2026-05-08 19:01 | 35.60860 | 23.83842 | 6708 ft | 339 kts | 108° |
| 2026-05-08 19:02 | 35.60020 | 23.86439 | 6387 ft | 325 kts | 110° |
| 2026-05-08 19:02 | 35.59243 | 23.89090 | 5801 ft | 327 kts | 113° |
| 2026-05-08 19:02 | 35.58274 | 23.91499 | 5521 ft | 306 kts | 119° |
| 2026-05-08 19:02 | 35.57623 | 23.93940 | 5172 ft | 288 kts | 99° |
| 2026-05-08 19:03 | 35.57356 | 23.96120 | 5348 ft | 245 kts | 102° |
| 2026-05-08 19:03 | 35.56942 | 23.98217 | 3974 ft | 262 kts | 108° |
| 2026-05-08 19:03 | 35.56792 | 24.00473 | 2352 ft | 273 kts | 81° |
| 2026-05-08 19:03 | 35.56992 | 24.02729 | 1734 ft | 241 kts | 94° |
| 2026-05-08 19:04 | 35.56726 | 24.04540 | 1827 ft | 193 kts | 109° |
| 2026-05-08 19:04 | 35.56260 | 24.05883 | 1902 ft | 153 kts | 116° |
| 2026-05-08 19:04 | 35.55809 | 24.06995 | 1743 ft | 140 kts | 112° |
| 2026-05-08 19:04 | 35.55481 | 24.08160 | 1549 ft | 148 kts | 111° |
| 2026-05-08 19:05 | 35.55101 | 24.09329 | 1309 ft | 147 kts | 116° |
| 2026-05-08 19:05 | 35.54642 | 24.10452 | 1049 ft | 147 kts | 114° |
| 2026-05-08 19:05 | 35.54261 | 24.11607 | 819 ft | 142 kts | 108° |
| 2026-05-08 19:05 | 35.53904 | 24.12724 | 594 ft | 141 kts | 109° |
| 2026-05-08 19:06 | 35.53547 | 24.13819 | 451 ft | 130 kts | 108° |
| 2026-05-08 19:06 | 35.53300 | 24.14603 | 460 ft | 49 kts | 112° |
| 2026-05-08 19:06 | 35.53210 | 24.14865 | 465 ft | 10 kts | 112° |
| 2026-05-08 19:06 | 35.53181 | 24.14957 | 466 ft | 13 kts | 111° |
| 2026-05-08 19:07 | 35.53152 | 24.15070 | 468 ft | 15 kts | 90° |
| 2026-05-08 19:07 | 35.53224 | 24.15139 | 468 ft | 15 kts | 25° |
| 2026-05-08 19:07 | 35.53317 | 24.15216 | 469 ft | 18 kts | 38° |
| 2026-05-08 19:07 | 35.53401 | 24.15336 | 469 ft | 19 kts | 58° |
| 2026-05-08 19:08 | 35.53427 | 24.15497 | 471 ft | 20 kts | 94° |
| 2026-05-08 19:08 | 35.53409 | 24.15667 | 471 ft | 21 kts | 102° |
| 2026-05-08 19:08 | 35.53351 | 24.15825 | 469 ft | 12 kts | 133° |
| 2026-05-08 19:08 | 35.53281 | 24.15900 | 476 ft | 15 kts | 141° |
| 2026-05-08 19:09 | 35.53194 | 24.15977 | 476 ft | 8 kts | 155° |
| 2026-05-08 19:09 | 35.53192 | 24.15978 | 476 ft | 0 kts | 156° |
| 2026-05-08 19:10 | 35.53181 | 24.15984 | 471 ft | 4 kts | 156° |
| 2026-05-08 19:10 | 35.53142 | 24.16001 | 471 ft | 9 kts | 168° |
| 2026-05-08 19:11 | 35.53069 | 24.15971 | 470 ft | 14 kts | 228° |
| 2026-05-08 19:11 | 35.53073 | 24.15857 | 475 ft | 16 kts | 289° |
| 2026-05-08 19:11 | 35.53102 | 24.15750 | 475 ft | 0 kts | 290° |
| 2026-05-08 19:11 | 35.53108 | 24.15731 | 470 ft | 7 kts | 290° |
| 2026-05-08 19:12 | 35.53135 | 24.15642 | 472 ft | 15 kts | 290° |
| 2026-05-08 19:12 | 35.53177 | 24.15507 | 467 ft | 19 kts | 290° |
| 2026-05-08 19:12 | 35.53221 | 24.15372 | 468 ft | 5 kts | 291° |
| 2026-05-08 19:12 | 35.53240 | 24.15313 | 470 ft | 10 kts | 291° |
| 2026-05-08 19:13 | 35.53273 | 24.15208 | 469 ft | 15 kts | 291° |
| 2026-05-08 19:13 | 35.53291 | 24.15153 | 468 ft | 0 kts | 292° |
| 2026-05-08 19:13 | 35.53302 | 24.15120 | 468 ft | 9 kts | 292° |
| 2026-05-08 19:13 | 35.53335 | 24.15019 | 463 ft | 16 kts | 292° |
| 2026-05-08 19:14 | 35.53383 | 24.14873 | 462 ft | 21 kts | 292° |
| 2026-05-08 19:14 | 35.53445 | 24.14690 | 461 ft | 25 kts | 292° |
| 2026-05-08 19:14 | 35.53494 | 24.14543 | 458 ft | 15 kts | 292° |
| 2026-05-08 19:14 | 35.53532 | 24.14432 | 458 ft | 0 kts | 292° |
| 2026-05-08 19:15 | 35.53578 | 24.14297 | 456 ft | 46 kts | 292° |
| 2026-05-08 19:15 | 35.53710 | 24.13907 | 451 ft | 51 kts | 294° |
| 2026-05-08 19:15 | 35.53793 | 24.13796 | 450 ft | 7 kts | 6° |
| 2026-05-08 19:15 | 35.53847 | 24.13821 | 450 ft | 10 kts | 37° |
| 2026-05-08 19:16 | 35.53847 | 24.13876 | 451 ft | 8 kts | 113° |
| 2026-05-08 19:16 | 35.53843 | 24.13888 | 451 ft | 0 kts | 113° |
| 2026-05-08 19:17 | 35.53841 | 24.13893 | 451 ft | 3 kts | 113° |
| 2026-05-08 19:17 | 35.53835 | 24.13937 | 452 ft | 6 kts | 64° |
| 2026-05-08 19:17 | 35.53876 | 24.13971 | 453 ft | 9 kts | 0° |
| 2026-05-08 19:17 | 35.53905 | 24.13918 | 452 ft | 8 kts | 250° |
| 2026-05-08 19:18 | 35.53883 | 24.13898 | 452 ft | 0 kts | 202° |
| 2026-05-08 19:24 | 35.53917 | 24.13916 | 451 ft | 0 kts | 24° |
| 2026-05-08 19:37 | 35.53897 | 24.13969 | 453 ft | 0 kts | 24° |